Date,TemperatureHighF,TemperatureAvgF,TemperatureLowF,DewpointHighF,DewpointAvgF,DewpointLowF,HumidityHigh,HumidityAvg,HumidityLow,PressureMaxIn,PressureMinIn,WindSpeedMaxMPH,WindSpeedAvgMPH,GustSpeedMaxMPH,PrecipitationSumIn
2013-1-1,50,46,42,49,41,29,97,84,49,30.13,29.96,4,0,8,0.28
2013-1-2,49,45,40,48,42,38,97,90,76,30.21,29.93,8,1,9,0.26
2013-1-3,45,40,29,38,36,28,95,86,68,30.29,30.17,4,0,7,0.00
2013-1-4,51,37,24,32,26,22,97,69,33,30.35,30.22,7,1,13,0.00
2013-1-5,49,37,25,33,27,22,90,70,39,30.43,30.30,5,0,6,0.00
2013-1-6,48,42,34,40,37,32,96,84,67,30.28,30.08,3,0,7,0.02
2013-1-7,52,38,27,37,31,26,97,79,48,30.46,30.20,13,0,14,0.01
2013-1-8,57,42,29,42,36,28,95,81,54,30.49,30.39,4,0,6,0.00
2013-1-9,66,49,34,52,44,33,97,82,55,30.47,30.37,4,0,6,0.00
2013-1-10,63,53,45,49,45,37,97,75,50,30.55,30.43,5,1,11,0.00
2013-1-11,50,47,42,49,43,33,98,88,55,30.45,30.17,4,0,9,0.25
2013-1-12,72,56,49,64,55,48,98,94,75,30.19,30.11,4,0,8,0.00
2013-1-13,74,62,52,62,58,52,98,85,63,30.15,30.06,7,1,11,0.01
2013-1-14,71,64,58,64,60,56,94,87,78,30.17,30.09,4,0,9,0.00
2013-1-15,65,48,45,61,46,44,97,94,87,30.24,30.07,6,1,11,0.01
2013-1-16,50,46,44,49,46,43,98,97,97,30.10,30.00,3,0,5,0.15
2013-1-17,50,47,33,50,46,32,98,96,92,30.18,29.89,11,2,23,0.97
2013-1-18,46,36,28,35,30,25,97,80,44,30.56,30.17,5,0,10,0.13
2013-1-19,54,38,24,35,29,23,96,74,35,30.54,30.19,5,1,10,0.01
2013-1-20,64,47,36,37,34,32,87,64,32,30.18,30.00,8,1,15,0.00
2013-1-21,60,44,28,36,29,20,96,62,34,30.11,29.89,9,1,13,0.00
2013-1-22,40,34,26,25,10,-2,65,39,18,30.32,29.99,7,1,14,0.00
2013-1-23,41,30,18,20,12,4,79,50,30,30.42,30.10,7,1,14,0.00
2013-1-24,38,32,26,26,14,3,88,52,26,30.54,30.00,15,1,18,0.00
2013-1-25,27,24,20,25,16,4,93,71,40,30.56,30.16,4,1,7,0.01
2013-1-26,41,31,26,34,28,25,96,90,65,30.44,30.13,4,0,5,0.18
2013-1-27,40,32,24,30,27,23,96,83,59,30.63,30.43,5,1,9,0.08
2013-1-28,52,42,32,46,37,29,93,82,69,30.54,30.26,7,1,7,0.03
2013-1-29,73,58,44,58,52,43,96,81,58,30.27,30.08,11,2,14,0.00
2013-1-30,72,67,59,64,62,56,94,84,72,30.08,29.41,16,5,27,0.40
2013-1-31,62,47,32,59,31,21,90,58,33,30.04,29.49,18,6,25,0.12